Time;durP1;ratioP1;P1;durP2;ratioP2;P2;SDS_P1;SDS_P2;PMS_P1;PMS_P2;Temp;Humidity;BMP_temperature;BMP_pressure;BME280_temperature;BME280_humidity;BME280_pressure;Samples;Min_cycle;Max_cycle;Signal;HPM_P1;HPM_P2
2023/04/13 00:00:22;;;;;;;;;;;;;;;7.66;100.00;95288.22;5100301;28;19931;-81
2023/04/13 00:02:52;;;;;;;;;;;;;;;7.68;100.00;95296.03;5099422;28;19928;-80
2023/04/13 00:05:20;;;;;;;;;;;;;;;7.63;100.00;95290.59;5102413;28;19938;-81
2023/04/13 00:07:47;;;;;;;;;;;;;;;7.63;100.00;95291.41;5107590;28;19931;-81
2023/04/13 00:10:14;;;;;;;;;;;;;;;7.67;100.00;95297.09;5106273;28;19924;-80
2023/04/13 00:12:46;;;;;;;;;;;;;;;7.67;100.00;95295.22;5104567;28;19924;-80
2023/04/13 00:15:13;;;;;;;;;;;;;;;7.63;100.00;95294.09;5107021;28;19931;-81
2023/04/13 00:17:41;;;;;;;;;;;;;;;7.60;100.00;95306.13;5107809;28;19932;-81
2023/04/13 00:20:11;;;;;;;;;;;;;;;7.63;100.00;95296.78;5099509;28;19945;-81
2023/04/13 00:22:38;;;;;;;;;;;;;;;7.53;100.00;95300.06;5103462;28;19924;-81
2023/04/13 00:25:05;;;;;;;;;;;;;;;7.53;100.00;95307.31;5101477;28;19925;-82
2023/04/13 00:27:32;;;;;;;;;;;;;;;7.50;100.00;95313.94;5108203;28;19925;-82
2023/04/13 00:30:00;;;;;;;;;;;;;;;7.49;100.00;95317.69;5111072;28;19948;-81
2023/04/13 00:32:29;;;;;;;;;;;;;;;7.47;100.00;95317.13;5111839;28;19978;-82
2023/04/13 00:34:56;;;;;;;;;;;;;;;7.49;100.00;95314.19;5099590;28;20034;-81
2023/04/13 00:37:22;;;;;;;;;;;;;;;7.55;100.00;95321.31;5107715;28;19932;-81
2023/04/13 00:39:50;;;;;;;;;;;;;;;7.60;100.00;95308.81;5108730;28;20007;-82
2023/04/13 00:42:18;;;;;;;;;;;;;;;7.62;100.00;95305.88;5112075;28;19963;-82
2023/04/13 00:44:44;;;;;;;;;;;;;;;7.67;100.00;95305.97;5110141;28;19974;-82
2023/04/13 00:47:16;;;;;;;;;;;;;;;7.74;100.00;95309.34;5103388;28;19939;-81
2023/04/13 00:49:43;;;;;;;;;;;;;;;7.60;100.00;95316.84;5103270;28;19946;-82
2023/04/13 00:52:10;;;;;;;;;;;;;;;7.40;100.00;95321.78;5110864;28;19928;-82
2023/04/13 00:54:38;;;;;;;;;;;;;;;7.22;100.00;95322.75;5104546;28;19923;-80
2023/04/13 00:57:06;;;;;;;;;;;;;;;7.01;100.00;95315.28;5106450;28;19930;-80
2023/04/13 00:59:33;;;;;;;;;;;;;;;6.97;100.00;95316.81;5102579;28;19967;-81
2023/04/13 01:02:03;;;;;;;;;;;;;;;6.94;100.00;95303.84;5103287;28;19928;-82
2023/04/13 01:04:32;;;;;;;;;;;;;;;6.97;100.00;95303.38;5115245;27;19978;-81
2023/04/13 01:07:03;;;;;;;;;;;;;;;7.01;100.00;95309.91;5110019;28;19924;-80
2023/04/13 01:09:32;;;;;;;;;;;;;;;7.02;100.00;95314.22;5099994;28;19928;-82
2023/04/13 01:12:03;;;;;;;;;;;;;;;7.07;100.00;95318.88;5099938;28;19963;-80
2023/04/13 01:14:33;;;;;;;;;;;;;;;7.01;100.00;95326.00;5108376;28;19932;-80
2023/04/13 01:17:04;;;;;;;;;;;;;;;6.91;100.00;95330.31;5099996;28;19932;-81
2023/04/13 01:19:42;;;;;;;;;;;;;;;6.89;100.00;95329.75;5104958;27;19924;-80
2023/04/13 01:22:13;;;;;;;;;;;;;;;6.96;100.00;95331.28;5103120;28;19975;-80
2023/04/13 01:24:40;;;;;;;;;;;;;;;7.08;100.00;95323.22;5101876;27;20000;-81
2023/04/13 01:27:11;;;;;;;;;;;;;;;7.15;100.00;95330.09;5085932;28;20078;-81
2023/04/13 01:29:40;;;;;;;;;;;;;;;7.23;100.00;95334.28;5121301;27;19924;-81
2023/04/13 01:32:08;;;;;;;;;;;;;;;7.21;100.00;95334.53;5108330;28;19924;-81
2023/04/13 01:34:37;;;;;;;;;;;;;;;7.26;100.00;95330.31;5111268;28;19924;-81
2023/04/13 01:37:07;;;;;;;;;;;;;;;7.21;100.00;95328.34;5111654;28;19931;-80
2023/04/13 01:39:36;;;;;;;;;;;;;;;7.22;100.00;95346.09;5094652;28;20078;-82
2023/04/13 01:42:12;;;;;;;;;;;;;;;7.19;100.00;95346.56;5109450;28;20181;-81
2023/04/13 01:44:41;;;;;;;;;;;;;;;7.05;100.00;95345.97;5093780;28;19924;-80
2023/04/13 01:47:14;;;;;;;;;;;;;;;6.98;100.00;95350.63;5102540;28;19928;-81
2023/04/13 01:50:04;;;;;;;;;;;;;;;6.93;100.00;95353.19;5106849;28;19963;-84
2023/04/13 01:52:36;;;;;;;;;;;;;;;7.00;100.00;95353.06;5101535;28;19995;-83
2023/04/13 01:55:06;;;;;;;;;;;;;;;6.91;100.00;95349.09;5098917;28;19978;-83
2023/04/13 01:57:34;;;;;;;;;;;;;;;6.93;100.00;95352.38;5107910;28;19931;-81
2023/04/13 02:00:10;;;;;;;;;;;;;;;6.90;100.00;95355.50;5105137;28;19931;-81
2023/04/13 02:02:39;;;;;;;;;;;;;;;6.75;100.00;95345.22;5094935;28;19963;-80
2023/04/13 02:05:08;;;;;;;;;;;;;;;6.78;100.00;95344.78;5108563;28;19977;-80
2023/04/13 02:07:36;;;;;;;;;;;;;;;6.72;100.00;95349.19;5103937;28;19941;-81
2023/04/13 02:10:04;;;;;;;;;;;;;;;6.72;100.00;95346.50;5103837;28;19923;-81
2023/04/13 02:12:33;;;;;;;;;;;;;;;6.73;100.00;95356.19;5106963;28;19935;-82
2023/04/13 02:15:00;;;;;;;;;;;;;;;6.71;100.00;95355.63;5106772;28;19924;-82
2023/04/13 02:17:28;;;;;;;;;;;;;;;6.75;100.00;95355.97;5107582;28;19931;-83
2023/04/13 02:19:56;;;;;;;;;;;;;;;6.76;100.00;95358.41;5122470;27;19928;-82
2023/04/13 02:22:23;;;;;;;;;;;;;;;6.74;100.00;95365.06;5105058;28;19924;-82
2023/04/13 02:24:50;;;;;;;;;;;;;;;6.74;100.00;95360.50;5100371;28;19927;-82
2023/04/13 02:27:17;;;;;;;;;;;;;;;6.76;100.00;95362.97;5098138;28;19927;-83
2023/04/13 02:29:43;;;;;;;;;;;;;;;6.80;100.00;95361.47;5106948;28;19945;-82
2023/04/13 02:32:10;;;;;;;;;;;;;;;6.74;100.00;95363.19;5105878;28;19930;-83
2023/04/13 02:34:38;;;;;;;;;;;;;;;6.73;100.00;95369.59;5104186;28;19923;-81
2023/04/13 02:37:08;;;;;;;;;;;;;;;6.76;100.00;95366.47;5103454;28;19924;-81
2023/04/13 02:39:36;;;;;;;;;;;;;;;6.72;100.00;95361.81;5115190;27;20007;-81
2023/04/13 02:42:04;;;;;;;;;;;;;;;6.72;100.00;95359.13;5104140;28;19928;-85
2023/04/13 02:44:32;;;;;;;;;;;;;;;6.66;100.00;95355.47;5105279;28;19936;-83
2023/04/13 02:47:00;;;;;;;;;;;;;;;6.65;100.00;95353.00;5107591;28;19934;-82
2023/04/13 02:49:27;;;;;;;;;;;;;;;6.61;100.00;95357.22;5105818;28;19928;-81
2023/04/13 02:52:03;;;;;;;;;;;;;;;6.61;100.00;95351.84;5098662;28;19928;-83
2023/04/13 02:54:42;;;;;;;;;;;;;;;6.51;100.00;95359.63;5118525;27;19967;-83
2023/04/13 02:57:12;;;;;;;;;;;;;;;6.45;100.00;95359.50;5108000;28;20026;-83
2023/04/13 02:59:40;;;;;;;;;;;;;;;6.46;100.00;95357.66;5098158;28;19939;-83
2023/04/13 03:02:09;;;;;;;;;;;;;;;6.30;100.00;95353.72;5102520;28;19924;-81
2023/04/13 03:04:36;;;;;;;;;;;;;;;6.20;100.00;95360.69;5104438;28;19924;-82
2023/04/13 03:07:08;;;;;;;;;;;;;;;6.11;100.00;95349.47;5105173;28;20039;-83
2023/04/13 03:09:39;;;;;;;;;;;;;;;6.07;100.00;95359.00;5103412;28;19989;-83
2023/04/13 03:12:08;;;;;;;;;;;;;;;6.05;100.00;95356.53;5104232;28;19967;-83
2023/04/13 03:14:35;;;;;;;;;;;;;;;6.00;100.00;95355.59;5104893;28;19960;-81
2023/04/13 03:17:06;;;;;;;;;;;;;;;6.02;100.00;95350.84;5106449;28;19974;-84
2023/04/13 03:19:39;;;;;;;;;;;;;;;6.06;100.00;95352.00;5099942;28;19931;-82
2023/04/13 03:22:08;;;;;;;;;;;;;;;5.98;100.00;95345.09;5096096;28;20011;-83
2023/04/13 03:24:41;;;;;;;;;;;;;;;5.95;100.00;95340.22;5092331;28;19927;-82
2023/04/13 03:27:10;;;;;;;;;;;;;;;5.95;100.00;95339.41;5108578;28;19934;-83
2023/04/13 03:29:54;;;;;;;;;;;;;;;5.90;100.00;95337.38;5106694;28;19931;-81
2023/04/13 03:32:22;;;;;;;;;;;;;;;5.94;100.00;95335.06;5104738;28;19928;-82
2023/04/13 03:34:55;;;;;;;;;;;;;;;5.87;100.00;95331.63;5097374;28;20011;-86
2023/04/13 03:37:28;;;;;;;;;;;;;;;5.85;100.00;95339.06;5098947;28;19932;-80
2023/04/13 03:39:57;;;;;;;;;;;;;;;5.77;100.00;95331.34;5100611;28;19924;-82
2023/04/13 03:42:27;;;;;;;;;;;;;;;5.74;100.00;95332.59;5105529;28;20018;-80
2023/04/13 03:44:58;;;;;;;;;;;;;;;5.77;100.00;95337.53;5107453;28;20038;-81
2023/04/13 03:47:25;;;;;;;;;;;;;;;5.78;100.00;95332.97;5104747;28;19923;-80
2023/04/13 03:49:52;;;;;;;;;;;;;;;5.78;100.00;95338.34;5113916;28;19939;-81
2023/04/13 03:52:19;;;;;;;;;;;;;;;5.81;100.00;95333.34;5104144;28;19977;-80
2023/04/13 03:54:55;;;;;;;;;;;;;;;5.79;100.00;95330.06;5098364;28;19928;-80
2023/04/13 03:57:22;;;;;;;;;;;;;;;5.77;100.00;95337.53;5105985;28;20010;-80
2023/04/13 03:59:50;;;;;;;;;;;;;;;5.78;100.00;95339.16;5108194;28;19984;-80
2023/04/13 04:02:26;;;;;;;;;;;;;;;5.76;100.00;95335.06;5110971;28;19939;-80
2023/04/13 04:04:52;;;;;;;;;;;;;;;5.80;100.00;95339.72;5112924;28;19924;-80
2023/04/13 04:07:21;;;;;;;;;;;;;;;5.79;100.00;95332.72;5110690;28;19924;-80
2023/04/13 04:09:50;;;;;;;;;;;;;;;5.72;100.00;95329.31;5112689;28;19924;-79
2023/04/13 04:12:19;;;;;;;;;;;;;;;5.76;100.00;95335.06;5109234;28;19924;-81
2023/04/13 04:14:46;;;;;;;;;;;;;;;5.76;100.00;95332.38;5111127;28;20018;-80
2023/04/13 04:17:17;;;;;;;;;;;;;;;5.74;100.00;95329.94;5123858;27;19924;-79
2023/04/13 04:19:44;;;;;;;;;;;;;;;5.76;100.00;95327.84;5110359;28;19924;-80
2023/04/13 04:22:12;;;;;;;;;;;;;;;5.81;100.00;95332.50;5107533;28;19931;-80
2023/04/13 04:24:41;;;;;;;;;;;;;;;5.75;100.00;95333.41;5112491;28;19923;-79
2023/04/13 04:27:08;;;;;;;;;;;;;;;5.77;100.00;95331.34;5108512;28;19924;-81
2023/04/13 04:29:37;;;;;;;;;;;;;;;5.76;100.00;95335.06;5110056;28;19950;-82
2023/04/13 04:32:22;;;;;;;;;;;;;;;5.73;100.00;95333.63;5104032;28;19931;-82
2023/04/13 04:34:51;;;;;;;;;;;;;;;5.67;100.00;95334.53;5109346;28;19924;-83
2023/04/13 04:37:22;;;;;;;;;;;;;;;5.63;100.00;95341.38;5103515;28;19924;-82
2023/04/13 04:40:08;;;;;;;;;;;;;;;5.61;100.00;95333.56;5117700;27;19925;-82
2023/04/13 04:42:36;;;;;;;;;;;;;;;5.60;100.00;95333.81;5109601;28;19924;-81
2023/04/13 04:45:13;;;;;;;;;;;;;;;5.58;100.00;95339.38;5108382;28;19939;-81
2023/04/13 04:47:43;;;;;;;;;;;;;;;5.55;100.00;95339.81;5111026;28;19930;-81
2023/04/13 04:50:16;;;;;;;;;;;;;;;5.58;100.00;95346.59;5106688;28;19991;-81
2023/04/13 04:52:46;;;;;;;;;;;;;;;5.57;100.00;95347.63;5103955;28;19996;-82
2023/04/13 04:55:18;;;;;;;;;;;;;;;5.56;100.00;95348.69;5103559;28;19973;-81
2023/04/13 04:57:45;;;;;;;;;;;;;;;5.58;100.00;95352.78;5095560;28;19924;-82
2023/04/13 05:00:16;;;;;;;;;;;;;;;5.65;100.00;95353.50;5099992;28;19928;-82
2023/04/13 05:02:50;;;;;;;;;;;;;;;5.64;100.00;95364.44;5108395;28;19938;-81
2023/04/13 05:05:18;;;;;;;;;;;;;;;5.63;100.00;95362.81;5109844;28;19928;-81
2023/04/13 05:07:45;;;;;;;;;;;;;;;5.69;100.00;95360.06;5105969;28;19924;-81
2023/04/13 05:10:13;;;;;;;;;;;;;;;5.75;100.00;95360.22;5106751;28;19928;-83
2023/04/13 05:12:46;;;;;;;;;;;;;;;5.71;100.00;95370.53;5103343;28;19969;-83
2023/04/13 05:15:12;;;;;;;;;;;;;;;5.72;100.00;95364.16;5096612;28;19923;-81
2023/04/13 05:17:45;;;;;;;;;;;;;;;5.75;100.00;95369.06;5109501;28;19963;-81
2023/04/13 05:20:13;;;;;;;;;;;;;;;5.77;100.00;95375.03;5119925;27;19931;-81
2023/04/13 05:23:00;;;;;;;;;;;;;;;5.80;100.00;95369.19;5109223;28;19924;-82
2023/04/13 05:25:27;;;;;;;;;;;;;;;5.77;100.00;95376.88;5106505;28;19923;-82
2023/04/13 05:27:56;;;;;;;;;;;;;;;5.69;100.00;95373.47;5109537;28;19938;-82
2023/04/13 05:30:25;;;;;;;;;;;;;;;5.77;100.00;95366.97;5107610;28;19978;-81
2023/04/13 05:32:53;;;;;;;;;;;;;;;5.85;100.00;95361.31;5109798;28;19995;-83
2023/04/13 05:35:22;;;;;;;;;;;;;;;5.80;100.00;95363.84;5109322;28;19927;-81
2023/04/13 05:37:49;;;;;;;;;;;;;;;5.79;100.00;95372.09;5098442;28;20008;-81
2023/04/13 05:40:20;;;;;;;;;;;;;;;5.79;100.00;95372.91;5105115;28;19935;-82
2023/04/13 05:42:48;;;;;;;;;;;;;;;5.82;100.00;95375.16;5104031;28;19924;-81
2023/04/13 05:45:21;;;;;;;;;;;;;;;5.84;100.00;95375.75;5107152;28;20024;-81
2023/04/13 05:48:08;;;;;;;;;;;;;;;5.80;100.00;95371.06;5098333;28;19923;-80
2023/04/13 05:50:36;;;;;;;;;;;;;;;5.84;100.00;95383.78;5107829;28;19924;-82
2023/04/13 05:53:04;;;;;;;;;;;;;;;5.92;100.00;95382.69;5110793;28;19924;-82
2023/04/13 05:55:40;;;;;;;;;;;;;;;5.97;100.00;95380.16;5108682;28;19924;-81
2023/04/13 05:58:07;;;;;;;;;;;;;;;6.02;100.00;95385.66;5109065;28;19934;-82
2023/04/13 06:00:34;;;;;;;;;;;;;;;6.06;100.00;95384.97;5107516;28;19923;-81
2023/04/13 06:03:07;;;;;;;;;;;;;;;6.10;100.00;95392.59;5099037;28;19934;-82
2023/04/13 06:05:36;;;;;;;;;;;;;;;6.13;100.00;95386.75;5107469;28;19923;-82
2023/04/13 06:08:03;;;;;;;;;;;;;;;6.19;100.00;95393.91;5108165;28;19930;-86
2023/04/13 06:10:30;;;;;;;;;;;;;;;6.26;100.00;95390.09;5107500;28;20008;-82
2023/04/13 06:12:56;;;;;;;;;;;;;;;6.22;100.00;95398.81;5107401;28;19981;-82
2023/04/13 06:15:23;;;;;;;;;;;;;;;6.17;100.00;95406.72;5116906;27;19939;-81
2023/04/13 06:17:51;;;;;;;;;;;;;;;6.29;100.00;95396.88;5103241;28;19924;-81
2023/04/13 06:20:18;;;;;;;;;;;;;;;6.35;100.00;95401.31;5101463;28;19931;-82
2023/04/13 06:22:46;;;;;;;;;;;;;;;6.40;100.00;95402.25;5100604;28;19928;-81
2023/04/13 06:25:13;;;;;;;;;;;;;;;6.42;100.00;95402.88;5102168;28;19934;-81
2023/04/13 06:27:42;;;;;;;;;;;;;;;6.42;100.00;95402.88;5103989;28;19928;-83
2023/04/13 06:30:10;;;;;;;;;;;;;;;6.47;100.00;95403.00;5109768;28;19927;-81
2023/04/13 06:32:37;;;;;;;;;;;;;;;6.54;100.00;95408.28;5101379;28;19925;-81
2023/04/13 06:35:05;;;;;;;;;;;;;;;6.55;100.00;95398.38;5103521;28;19931;-82
2023/04/13 06:37:38;;;;;;;;;;;;;;;6.60;100.00;95402.00;5106697;28;19930;-81
2023/04/13 06:40:11;;;;;;;;;;;;;;;6.62;100.00;95397.22;5097616;28;19938;-82
2023/04/13 06:42:42;;;;;;;;;;;;;;;6.68;100.00;95400.84;5094791;28;19928;-81
2023/04/13 06:45:36;;;;;;;;;;;;;;;6.66;100.00;95402.94;5096926;28;20024;-83
2023/04/13 06:48:08;;;;;;;;;;;;;;;6.65;100.00;95404.78;5104931;27;19932;-83
2023/04/13 06:50:37;;;;;;;;;;;;;;;6.65;100.00;95415.53;5096028;28;20002;-82
2023/04/13 06:53:05;;;;;;;;;;;;;;;6.65;100.00;95410.16;5100503;28;19931;-82
2023/04/13 06:55:33;;;;;;;;;;;;;;;6.70;100.00;95410.31;5110007;28;19977;-82
2023/04/13 06:58:00;;;;;;;;;;;;;;;6.79;100.00;95402.75;5110235;28;19959;-81
2023/04/13 07:00:27;;;;;;;;;;;;;;;6.69;100.00;95395.25;5107476;28;19955;-83
2023/04/13 07:02:54;;;;;;;;;;;;;;;6.70;100.00;95391.53;5105711;28;19924;-83
2023/04/13 07:05:21;;;;;;;;;;;;;;;6.75;100.00;95398.88;5103549;28;20171;-84
2023/04/13 07:07:51;;;;;;;;;;;;;;;6.69;100.00;95402.50;5102657;28;19924;-82
2023/04/13 07:10:18;;;;;;;;;;;;;;;6.71;100.00;95393.19;5108573;28;19953;-82
2023/04/13 07:12:46;;;;;;;;;;;;;;;6.69;100.00;95400.63;5110359;28;19930;-84
2023/04/13 07:15:14;;;;;;;;;;;;;;;6.69;100.00;95397.94;5108121;28;19971;-83
2023/04/13 07:17:41;;;;;;;;;;;;;;;6.69;100.00;95397.94;5096019;28;19931;-83
2023/04/13 07:20:08;;;;;;;;;;;;;;;6.69;100.00;95400.63;5095529;28;19939;-83
2023/04/13 07:22:35;;;;;;;;;;;;;;;6.68;100.00;95396.31;5102965;28;19924;-83
2023/04/13 07:25:02;;;;;;;;;;;;;;;6.71;100.00;95393.19;5105562;28;19923;-82
2023/04/13 07:27:29;;;;;;;;;;;;;;;6.70;100.00;95386.16;5100470;28;19977;-85
2023/04/13 07:29:58;;;;;;;;;;;;;;;6.72;100.00;95389.41;5102372;28;20050;-82
2023/04/13 07:32:30;;;;;;;;;;;;;;;6.73;100.00;95385.69;5105179;28;19931;-82
2023/04/13 07:35:00;;;;;;;;;;;;;;;6.74;98.64;95387.34;5103432;28;19928;-82
2023/04/13 07:37:28;;;;;;;;;;;;;;;6.77;100.00;95400.31;5104187;28;19924;-82
2023/04/13 07:39:55;;;;;;;;;;;;;;;6.82;99.98;95402.28;5104874;28;19949;-82
2023/04/13 07:42:25;;;;;;;;;;;;;;;6.90;98.83;95406.50;5104266;28;19932;-82
2023/04/13 07:44:54;;;;;;;;;;;;;;;6.90;98.72;95406.50;5110750;28;19930;-81
2023/04/13 07:47:23;;;;;;;;;;;;;;;6.91;95.83;95403.59;5095898;28;19939;-83
2023/04/13 07:49:52;;;;;;;;;;;;;;;6.94;95.96;95402.31;5099312;28;20035;-82
2023/04/13 07:52:20;;;;;;;;;;;;;;;7.02;96.22;95404.66;5095089;28;19931;-82
2023/04/13 07:54:49;;;;;;;;;;;;;;;7.05;97.01;95404.22;5106549;28;19935;-83
2023/04/13 07:57:18;;;;;;;;;;;;;;;7.11;97.47;95403.28;5107209;28;19923;-82
2023/04/13 07:59:49;;;;;;;;;;;;;;;7.16;96.69;95400.69;5109621;28;19924;-82
2023/04/13 08:02:19;;;;;;;;;;;;;;;7.15;94.35;95409.81;5098696;28;19924;-84
2023/04/13 08:04:53;;;;;;;;;;;;;;;7.19;96.65;95416.34;5095182;28;19939;-82
2023/04/13 08:07:26;;;;;;;;;;;;;;;7.32;91.84;95405.38;5108318;28;19931;-87
2023/04/13 08:09:53;;;;;;;;;;;;;;;7.36;91.96;95403.06;5110837;28;20026;-87
2023/04/13 08:12:21;;;;;;;;;;;;;;;7.43;92.84;95411.81;5094798;28;19924;-88
2023/04/13 08:14:48;;;;;;;;;;;;;;;7.46;94.99;95401.44;5106283;28;19949;-88
2023/04/13 08:17:15;;;;;;;;;;;;;;;7.50;91.66;95399.09;5102402;28;19932;-87
2023/04/13 08:19:42;;;;;;;;;;;;;;;7.59;93.06;95390.44;5106861;28;19924;-88
2023/04/13 08:22:14;;;;;;;;;;;;;;;7.81;93.33;95392.53;5105692;28;19923;-88
2023/04/13 08:24:41;;;;;;;;;;;;;;;7.86;91.32;95385.38;5097667;28;19931;-85
2023/04/13 08:27:09;;;;;;;;;;;;;;;7.93;89.73;95386.06;5108909;28;19924;-85
2023/04/13 08:29:36;;;;;;;;;;;;;;;8.08;91.94;95380.19;5102061;28;19931;-86
2023/04/13 08:32:03;;;;;;;;;;;;;;;8.20;85.36;95386.34;5117952;27;19983;-85
2023/04/13 08:34:30;;;;;;;;;;;;;;;8.11;83.44;95382.41;5103886;28;19924;-86
2023/04/13 08:36:57;;;;;;;;;;;;;;;8.18;85.88;95376.88;5108925;28;19966;-84
2023/04/13 08:39:29;;;;;;;;;;;;;;;8.22;86.50;95384.25;5108264;28;19938;-85
2023/04/13 08:41:56;;;;;;;;;;;;;;;8.24;86.25;95390.22;5111680;28;19924;-86
2023/04/13 08:44:26;;;;;;;;;;;;;;;8.29;88.22;95392.16;5112348;28;19967;-85
2023/04/13 08:46:53;;;;;;;;;;;;;;;8.39;86.99;95389.72;5105251;28;19932;-85
2023/04/13 08:49:26;;;;;;;;;;;;;;;8.44;83.56;95387.13;5110648;28;19934;-86
2023/04/13 08:52:11;;;;;;;;;;;;;;;8.44;83.80;95383.59;5112285;28;20023;-86
2023/04/13 08:54:42;;;;;;;;;;;;;;;8.47;85.82;95380.44;5112814;28;19927;-86
2023/04/13 08:57:16;;;;;;;;;;;;;;;8.50;83.30;95379.97;5112519;28;19923;-85
2023/04/13 08:59:44;;;;;;;;;;;;;;;8.60;82.39;95382.81;5110771;27;19924;-86
2023/04/13 09:02:11;;;;;;;;;;;;;;;8.79;82.38;95375.38;5107643;28;19957;-85
2023/04/13 09:04:49;;;;;;;;;;;;;;;8.84;79.10;95376.28;5095697;28;19960;-86
2023/04/13 09:07:25;;;;;;;;;;;;;;;8.92;80.33;95377.75;5105436;28;19924;-85
2023/04/13 09:09:56;;;;;;;;;;;;;;;9.05;80.48;95378.25;5108771;28;19932;-87
2023/04/13 09:12:23;;;;;;;;;;;;;;;9.13;76.11;95376.22;5109119;28;19971;-85
2023/04/13 09:14:51;;;;;;;;;;;;;;;9.19;77.67;95375.22;5096202;28;19928;-86
2023/04/13 09:17:25;;;;;;;;;;;;;;;9.28;79.44;95374.56;5105458;28;19924;-85
2023/04/13 09:19:53;;;;;;;;;;;;;;;9.46;76.76;95378.88;5105097;28;19946;-86
2023/04/13 09:22:21;;;;;;;;;;;;;;;9.62;74.50;95367.25;5114049;28;19928;-86
2023/04/13 09:24:48;;;;;;;;;;;;;;;9.83;72.69;95366.50;5103128;28;19924;-87
2023/04/13 09:27:20;;;;;;;;;;;;;;;9.91;71.01;95367.13;5100013;28;19932;-85
2023/04/13 09:29:51;;;;;;;;;;;;;;;9.95;69.26;95368.28;5109705;28;19924;-85
2023/04/13 09:32:21;;;;;;;;;;;;;;;10.11;69.22;95370.09;5105369;28;19953;-85
2023/04/13 09:34:58;;;;;;;;;;;;;;;10.14;67.54;95362.28;5106414;28;19924;-86
2023/04/13 09:37:27;;;;;;;;;;;;;;;10.07;60.09;95356.28;5099929;28;19930;-85
2023/04/13 09:39:53;;;;;;;;;;;;;;;10.07;64.63;95352.75;5110742;28;20012;-86
2023/04/13 09:42:22;;;;;;;;;;;;;;;10.08;64.02;95346.31;5108828;28;19936;-85
2023/04/13 09:44:55;;;;;;;;;;;;;;;10.07;64.38;95356.28;5103357;28;20007;-85
2023/04/13 09:47:22;;;;;;;;;;;;;;;10.11;62.88;95362.00;5111250;28;20081;-86
2023/04/13 09:49:50;;;;;;;;;;;;;;;10.10;64.44;95357.66;5108234;28;19924;-85
2023/04/13 09:52:21;;;;;;;;;;;;;;;10.14;64.75;95350.69;5104789;27;20034;-86
2023/04/13 09:54:51;;;;;;;;;;;;;;;10.20;66.58;95347.84;5108514;28;19994;-85
2023/04/13 09:57:26;;;;;;;;;;;;;;;10.20;63.76;95352.44;5108399;28;19924;-86
2023/04/13 09:59:53;;;;;;;;;;;;;;;10.16;65.16;95356.66;5111909;28;19950;-86
2023/04/13 10:02:20;;;;;;;;;;;;;;;10.17;63.73;95350.19;5102178;28;19991;-86
2023/04/13 10:04:47;;;;;;;;;;;;;;;10.16;62.86;95352.06;5107542;28;20022;-86
2023/04/13 10:07:13;;;;;;;;;;;;;;;10.17;62.77;95342.94;5101336;28;19924;-86
2023/04/13 10:09:42;;;;;;;;;;;;;;;10.27;64.72;95346.84;5100092;28;19974;-86
2023/04/13 10:12:12;;;;;;;;;;;;;;;10.33;66.93;95329.63;5097536;28;19924;-85
2023/04/13 10:14:43;;;;;;;;;;;;;;;10.35;66.92;95327.50;5107866;28;19923;-85
2023/04/13 10:17:27;;;;;;;;;;;;;;;10.36;63.92;95319.16;5106491;28;19930;-85
2023/04/13 10:19:55;;;;;;;;;;;;;;;10.49;65.16;95318.75;5105056;28;19932;-86
2023/04/13 10:22:23;;;;;;;;;;;;;;;10.49;61.20;95317.94;5101512;28;19923;-85
2023/04/13 10:24:50;;;;;;;;;;;;;;;10.53;61.46;95322.56;5100505;28;19928;-86
2023/04/13 10:27:18;;;;;;;;;;;;;;;10.63;62.08;95311.84;5103103;28;20105;-86
2023/04/13 10:29:47;;;;;;;;;;;;;;;10.67;62.36;95303.25;5106388;28;19924;-86
2023/04/13 10:32:20;;;;;;;;;;;;;;;10.49;61.88;95309.81;5104939;28;20019;-86
2023/04/13 10:34:47;;;;;;;;;;;;;;;10.59;62.16;95312.63;5101829;28;19933;-85
2023/04/13 10:37:19;;;;;;;;;;;;;;;10.59;63.76;95308.06;5094309;27;19924;-86
2023/04/13 10:39:47;;;;;;;;;;;;;;;10.58;66.17;95325.31;5099618;28;19959;-85
2023/04/13 10:42:15;;;;;;;;;;;;;;;10.44;63.96;95328.69;5108010;28;19923;-86
2023/04/13 10:44:45;;;;;;;;;;;;;;;10.15;67.56;95336.97;5107637;28;19934;-86
2023/04/13 10:47:14;;;;;;;;;;;;;;;9.96;73.72;95351.00;5106766;28;19924;-85
2023/04/13 10:49:41;;;;;;;;;;;;;;;9.60;76.09;95364.03;5110329;27;19969;-85
2023/04/13 10:52:09;;;;;;;;;;;;;;;9.40;79.15;95369.91;5108428;28;19932;-85
2023/04/13 10:54:37;;;;;;;;;;;;;;;9.28;81.72;95373.75;5111612;28;19923;-85
2023/04/13 10:57:05;;;;;;;;;;;;;;;9.10;86.57;95381.00;5107024;28;19924;-85
2023/04/13 10:59:42;;;;;;;;;;;;;;;8.68;89.58;95394.03;5103185;28;19923;-85
2023/04/13 11:02:10;;;;;;;;;;;;;;;8.42;90.92;95404.56;5108355;28;19989;-85
2023/04/13 11:04:39;;;;;;;;;;;;;;;8.23;92.24;95401.19;5111621;28;19924;-85
2023/04/13 11:07:07;;;;;;;;;;;;;;;8.20;94.98;95401.66;5108523;28;19924;-85
2023/04/13 11:09:34;;;;;;;;;;;;;;;8.21;96.55;95397.94;5113369;27;19924;-86
2023/04/13 11:12:01;;;;;;;;;;;;;;;8.08;95.47;95399.00;5094809;28;20207;-85
2023/04/13 11:14:27;;;;;;;;;;;;;;;8.04;97.20;95389.78;5102510;28;19934;-85
2023/04/13 11:16:55;;;;;;;;;;;;;;;8.16;97.48;95387.09;5107525;28;20027;-85
2023/04/13 11:19:22;;;;;;;;;;;;;;;8.19;94.57;95383.91;5105195;28;19924;-85
2023/04/13 11:21:56;;;;;;;;;;;;;;;8.30;96.15;95388.44;5105459;28;19959;-86
2023/04/13 11:24:24;;;;;;;;;;;;;;;8.35;94.06;95375.91;5101215;28;19959;-85
2023/04/13 11:26:51;;;;;;;;;;;;;;;8.54;92.09;95368.47;5107354;28;20011;-87
2023/04/13 11:29:18;;;;;;;;;;;;;;;8.82;91.64;95362.25;5107296;28;19924;-86
2023/04/13 11:31:45;;;;;;;;;;;;;;;9.10;89.61;95362.16;5103603;28;19980;-86
2023/04/13 11:34:12;;;;;;;;;;;;;;;9.34;85.54;95356.63;5105830;28;20022;-86
2023/04/13 11:36:42;;;;;;;;;;;;;;;9.39;83.22;95354.81;5107544;28;19935;-87
2023/04/13 11:39:11;;;;;;;;;;;;;;;9.60;82.98;95355.94;5102919;28;19928;-87
2023/04/13 11:41:41;;;;;;;;;;;;;;;9.68;81.04;95347.44;5099662;28;19988;-87
2023/04/13 11:44:08;;;;;;;;;;;;;;;9.79;80.39;95341.09;5115596;28;19966;-87
2023/04/13 11:46:35;;;;;;;;;;;;;;;9.90;81.57;95336.66;5108149;28;19923;-86
2023/04/13 11:49:02;;;;;;;;;;;;;;;9.91;81.90;95329.38;5106544;28;19978;-87
2023/04/13 11:51:29;;;;;;;;;;;;;;;9.98;78.94;95324.59;5124331;28;19928;-84
2023/04/13 11:53:57;;;;;;;;;;;;;;;9.98;78.72;95317.34;5108094;28;19927;-84
2023/04/13 11:56:29;;;;;;;;;;;;;;;9.91;79.63;95314.00;5100180;28;19930;-86
2023/04/13 11:58:56;;;;;;;;;;;;;;;9.95;79.12;95312.47;5120257;28;19975;-87
2023/04/13 12:01:23;;;;;;;;;;;;;;;10.02;78.01;95304.16;5104046;28;19931;-86
2023/04/13 12:03:50;;;;;;;;;;;;;;;10.05;79.27;95295.56;5109799;28;19923;-86
2023/04/13 12:06:17;;;;;;;;;;;;;;;10.24;79.73;95294.19;5093287;28;19931;-86
2023/04/13 12:08:44;;;;;;;;;;;;;;;10.51;78.53;95289.63;5106824;28;19924;-86
2023/04/13 12:11:12;;;;;;;;;;;;;;;10.14;76.93;95286.78;5099448;28;19923;-86
2023/04/13 12:13:43;;;;;;;;;;;;;;;10.31;76.28;95289.41;5125439;27;19928;-86
2023/04/13 12:16:11;;;;;;;;;;;;;;;10.22;73.85;95291.75;5106119;28;19935;-86
2023/04/13 12:18:42;;;;;;;;;;;;;;;10.45;73.88;95282.56;5096199;28;20213;-89
2023/04/13 12:21:12;;;;;;;;;;;;;;;10.63;72.37;95265.97;5125061;27;20039;-88
2023/04/13 12:23:39;;;;;;;;;;;;;;;10.86;70.18;95269.41;5110183;28;19947;-87
2023/04/13 12:26:07;;;;;;;;;;;;;;;11.03;72.17;95261.97;5112546;28;19928;-89
2023/04/13 12:28:34;;;;;;;;;;;;;;;10.96;68.73;95270.31;5114480;27;19924;-89
2023/04/13 12:31:07;;;;;;;;;;;;;;;10.88;69.58;95267.28;5104778;28;19924;-88
2023/04/13 12:33:34;;;;;;;;;;;;;;;10.71;68.12;95270.09;5104792;28;20023;-89
2023/04/13 12:36:01;;;;;;;;;;;;;;;10.46;68.73;95281.47;5100788;28;20027;-89
2023/04/13 12:38:28;;;;;;;;;;;;;;;10.39;72.52;95283.56;5114105;28;19924;-89
2023/04/13 12:40:55;;;;;;;;;;;;;;;10.15;71.35;95279.50;5109398;28;19931;-90
2023/04/13 12:43:22;;;;;;;;;;;;;;;9.97;72.21;95271.75;5095791;28;20010;-89
2023/04/13 12:45:50;;;;;;;;;;;;;;;9.90;69.46;95269.25;5109186;28;19983;-89
2023/04/13 12:48:18;;;;;;;;;;;;;;;9.90;70.32;95261.16;5111194;28;19951;-89
2023/04/13 12:50:45;;;;;;;;;;;;;;;9.87;68.81;95270.56;5098745;28;19951;-88
2023/04/13 12:53:12;;;;;;;;;;;;;;;9.97;69.55;95260.94;5097099;28;19991;-89
2023/04/13 12:55:39;;;;;;;;;;;;;;;10.00;70.81;95266.66;5112252;28;19934;-89
2023/04/13 12:58:06;;;;;;;;;;;;;;;10.14;70.84;95267.06;5111926;28;19977;-89
2023/04/13 13:00:33;;;;;;;;;;;;;;;10.21;71.07;95273.94;5109039;28;19931;-88